createdAt,value
2023-05-16T00:00:54.372Z,45.35
2023-05-16T00:01:58.629Z,44.90
2023-05-16T00:03:04.632Z,45.07
2023-05-16T00:04:12.127Z,45.48
2023-05-16T00:05:15.932Z,45.02
2023-05-16T00:06:19.260Z,45.99
2023-05-16T00:07:21.982Z,45.46
2023-05-16T00:08:25.637Z,45.18
2023-05-16T00:09:29.059Z,45.34
2023-05-16T00:10:31.567Z,45.79
2023-05-16T00:11:35.281Z,45.72
2023-05-16T00:12:41.761Z,46.06
2023-05-16T00:13:45.945Z,46.17
2023-05-16T00:14:53.234Z,45.92
2023-05-16T00:15:59.981Z,46.25
2023-05-16T00:17:05.436Z,46.34
2023-05-16T00:18:08.458Z,46.17
2023-05-16T00:19:12.247Z,46.56
2023-05-16T00:20:17.612Z,46.48
2023-05-16T00:21:23.059Z,46.86
2023-05-16T00:22:26.004Z,46.64
2023-05-16T00:23:31.593Z,47.13
2023-05-16T00:24:35.031Z,47.13
2023-05-16T00:25:38.697Z,46.66
2023-05-16T00:26:43.054Z,47.52
2023-05-16T00:27:49.536Z,46.81
2023-05-16T00:28:54.128Z,46.78
2023-05-16T00:29:57.417Z,46.37
2023-05-16T00:31:01.128Z,46.77
2023-05-16T00:32:04.202Z,47.36
2023-05-16T00:33:09.863Z,47.31
2023-05-16T00:34:13.463Z,46.85
2023-05-16T00:35:17.028Z,47.28
2023-05-16T00:36:23.559Z,47.61
2023-05-16T00:37:26.868Z,47.23
2023-05-16T00:38:31.414Z,47.12
2023-05-16T00:39:36.384Z,47.68
2023-05-16T00:40:39.864Z,47.92
2023-05-16T00:41:43.492Z,48.07
2023-05-16T00:42:46.909Z,48.36
2023-05-16T00:43:50.726Z,47.80
2023-05-16T00:44:54.223Z,48.69
2023-05-16T00:45:58.721Z,48.56
2023-05-16T00:47:03.350Z,49.46
2023-05-16T00:48:06.864Z,49.03
2023-05-16T00:49:10.342Z,49.19
2023-05-16T00:50:14.142Z,49.27
2023-05-16T00:51:18.489Z,49.48
2023-05-16T00:52:22.316Z,49.26
2023-05-16T00:53:27.818Z,48.87
2023-05-16T00:54:31.502Z,49.49
2023-05-16T00:55:37.629Z,48.75
2023-05-16T00:56:43.835Z,48.94
2023-05-16T00:57:48.313Z,49.53
2023-05-16T00:58:52.324Z,49.07
2023-05-16T00:59:56.140Z,49.58
2023-05-16T01:00:58.343Z,49.71
2023-05-16T01:02:02.396Z,49.70
2023-05-16T01:03:05.878Z,49.20
2023-05-16T01:04:08.609Z,49.64
2023-05-16T01:05:11.472Z,49.17
2023-05-16T01:06:16.541Z,50.05
2023-05-16T01:07:21.716Z,49.98
2023-05-16T01:08:25.113Z,49.30
2023-05-16T01:09:28.935Z,49.94
2023-05-16T01:10:41.527Z,49.89
2023-05-16T01:11:49.623Z,50.03
2023-05-16T01:13:01.303Z,49.62
2023-05-16T01:14:22.763Z,49.28
2023-05-16T01:15:33.254Z,49.29
2023-05-16T01:16:47.121Z,49.46
2023-05-16T01:18:07.109Z,49.68
2023-05-16T01:19:28.089Z,49.77
2023-05-16T01:20:33.527Z,49.61
2023-05-16T01:21:41.537Z,49.14
2023-05-16T01:22:49.952Z,48.84
2023-05-16T01:23:54.313Z,48.63
2023-05-16T01:24:58.937Z,48.94
2023-05-16T01:26:24.184Z,49.25
2023-05-16T01:27:29.401Z,49.95
2023-05-16T01:28:35.887Z,49.89
2023-05-16T01:29:39.497Z,49.09
2023-05-16T01:30:43.128Z,49.38
2023-05-16T01:31:45.635Z,49.85
2023-05-16T01:32:50.047Z,50.14
2023-05-16T01:33:53.722Z,49.13
2023-05-16T01:34:57.344Z,49.27
2023-05-16T01:36:08.369Z,49.59
2023-05-16T01:37:14.690Z,49.59
2023-05-16T01:38:19.645Z,50.00
2023-05-16T01:39:28.584Z,50.08
2023-05-16T01:40:40.032Z,50.00
2023-05-16T01:41:52.661Z,49.88
2023-05-16T01:42:58.219Z,50.42
2023-05-16T01:44:04.029Z,49.91
2023-05-16T01:45:16.514Z,50.62
2023-05-16T01:46:20.920Z,49.83
2023-05-16T01:47:26.082Z,49.66
2023-05-16T01:48:32.554Z,49.55
2023-05-16T01:49:42.531Z,50.15
2023-05-16T01:50:47.689Z,50.22
2023-05-16T01:51:52.784Z,50.52
2023-05-16T01:53:11.431Z,50.24
2023-05-16T01:54:16.819Z,50.21
2023-05-16T01:55:30.243Z,50.81
2023-05-16T01:56:35.942Z,50.55
2023-05-16T01:57:39.561Z,50.38
2023-05-16T01:58:47.778Z,51.66
2023-05-16T01:59:52.786Z,51.50
2023-05-16T02:00:59.408Z,51.10
2023-05-16T02:02:03.374Z,50.75
2023-05-16T02:03:07.607Z,50.83
2023-05-16T02:04:11.271Z,50.65
2023-05-16T02:05:15.162Z,50.84
2023-05-16T02:06:20.337Z,51.26
2023-05-16T02:07:25.659Z,51.16
2023-05-16T02:08:29.961Z,51.51
2023-05-16T02:09:33.672Z,51.58
2023-05-16T02:10:37.274Z,51.38
2023-05-16T02:11:39.526Z,51.13
2023-05-16T02:12:42.414Z,51.04
2023-05-16T02:13:46.129Z,51.47
2023-05-16T02:14:49.421Z,52.36
2023-05-16T02:15:55.111Z,52.07
2023-05-16T02:16:59.880Z,52.38
2023-05-16T02:18:02.363Z,52.70
2023-05-16T02:19:06.818Z,51.98
2023-05-16T02:20:11.855Z,52.52
2023-05-16T02:21:14.997Z,52.73
2023-05-16T02:22:18.760Z,52.54
2023-05-16T02:23:22.361Z,52.90
2023-05-16T02:24:25.873Z,52.81
2023-05-16T02:25:31.276Z,52.69
2023-05-16T02:26:34.241Z,53.05
2023-05-16T02:27:38.080Z,52.95
2023-05-16T02:28:45.048Z,53.10
2023-05-16T02:29:48.403Z,53.16
2023-05-16T02:31:00.268Z,53.46
2023-05-16T02:32:03.673Z,53.06
2023-05-16T02:33:06.997Z,53.49
2023-05-16T02:34:10.781Z,53.12
2023-05-16T02:35:14.085Z,54.32
2023-05-16T02:36:17.587Z,53.96
2023-05-16T02:37:22.137Z,54.62
2023-05-16T02:38:26.901Z,53.43
2023-05-16T02:39:33.640Z,53.69
2023-05-16T02:40:37.144Z,53.32
2023-05-16T02:41:42.457Z,53.42
2023-05-16T02:42:48.027Z,53.44
2023-05-16T02:43:52.892Z,53.21
2023-05-16T02:44:56.387Z,53.22
2023-05-16T02:46:00.684Z,52.76
2023-05-16T02:47:03.387Z,52.84
2023-05-16T02:48:10.598Z,52.68
2023-05-16T02:49:14.157Z,52.56
2023-05-16T02:50:17.669Z,52.65
2023-05-16T02:51:22.730Z,53.18
2023-05-16T02:52:26.027Z,52.61
2023-05-16T02:53:29.308Z,52.78
2023-05-16T02:54:32.516Z,52.20
2023-05-16T02:55:35.308Z,52.89
2023-05-16T02:56:37.856Z,52.22
2023-05-16T02:57:41.674Z,52.39
2023-05-16T02:58:47.691Z,52.69
2023-05-16T02:59:51.086Z,52.15
2023-05-16T03:00:54.593Z,51.52
2023-05-16T03:01:58.035Z,52.24
2023-05-16T03:03:06.412Z,52.83
2023-05-16T03:04:11.061Z,51.90
2023-05-16T03:05:14.779Z,51.71
2023-05-16T03:06:17.553Z,52.78
2023-05-16T03:07:20.955Z,52.53
2023-05-16T03:08:23.522Z,52.29
2023-05-16T03:09:26.966Z,52.25
2023-05-16T03:10:32.308Z,52.15
2023-05-16T03:11:37.009Z,52.04
2023-05-16T03:12:40.991Z,53.15
2023-05-16T03:13:44.597Z,52.57
2023-05-16T03:14:47.885Z,52.42
2023-05-16T03:15:51.834Z,52.03
2023-05-16T03:16:55.520Z,52.11
2023-05-16T03:17:58.779Z,52.00
2023-05-16T03:19:01.326Z,52.23
2023-05-16T03:20:07.027Z,51.86
2023-05-16T03:21:11.013Z,52.10
2023-05-16T03:22:14.721Z,52.15
2023-05-16T03:23:24.500Z,52.36
2023-05-16T03:24:28.660Z,52.35
2023-05-16T03:25:34.215Z,51.76
2023-05-16T03:26:37.106Z,52.15
2023-05-16T03:27:39.462Z,52.03
2023-05-16T03:28:42.646Z,52.15
2023-05-16T03:29:45.888Z,51.63
2023-05-16T03:30:49.341Z,52.44
2023-05-16T03:31:53.079Z,52.13
2023-05-16T03:32:55.575Z,52.22
2023-05-16T03:33:59.129Z,52.13
2023-05-16T03:35:02.425Z,52.17
2023-05-16T03:36:06.321Z,51.95
2023-05-16T03:37:12.608Z,51.62
2023-05-16T03:38:17.852Z,50.84
2023-05-16T03:39:22.834Z,50.83
2023-05-16T03:40:26.638Z,50.37
2023-05-16T03:41:29.419Z,50.27
2023-05-16T03:42:32.957Z,51.12
2023-05-16T03:43:36.531Z,51.96
2023-05-16T03:44:40.446Z,50.59
2023-05-16T03:45:43.918Z,50.66
2023-05-16T03:46:51.844Z,50.12
2023-05-16T03:47:55.177Z,49.87
2023-05-16T03:48:58.960Z,50.63
2023-05-16T03:50:02.358Z,50.22
2023-05-16T03:51:05.801Z,49.45
2023-05-16T03:52:08.635Z,50.39
2023-05-16T03:53:12.774Z,49.72
2023-05-16T03:54:16.275Z,49.21
2023-05-16T03:55:19.821Z,49.44
2023-05-16T03:56:23.285Z,50.68
2023-05-16T03:57:26.895Z,50.68
2023-05-16T03:58:29.079Z,49.46
2023-05-16T03:59:33.574Z,49.26
2023-05-16T04:00:38.304Z,49.84
2023-05-16T04:01:43.617Z,49.50
2023-05-16T04:02:50.045Z,49.88
2023-05-16T04:03:53.340Z,49.15
2023-05-16T04:04:59.786Z,48.86
2023-05-16T04:06:02.119Z,48.69
2023-05-16T04:07:08.255Z,49.23
2023-05-16T04:08:11.982Z,49.51
2023-05-16T04:09:14.325Z,49.83
2023-05-16T04:10:17.632Z,49.54
2023-05-16T04:11:22.726Z,49.03
2023-05-16T04:12:26.084Z,50.22
2023-05-16T04:13:30.307Z,50.33
2023-05-16T04:14:36.137Z,49.57
2023-05-16T04:15:39.837Z,49.34
2023-05-16T04:16:43.069Z,49.13
2023-05-16T04:17:47.744Z,48.96
2023-05-16T04:18:50.405Z,48.52
2023-05-16T04:19:53.289Z,48.95
2023-05-16T04:20:56.744Z,48.79
2023-05-16T04:21:59.410Z,49.30
2023-05-16T04:23:01.764Z,49.97
2023-05-16T04:24:04.969Z,48.19
2023-05-16T04:25:09.551Z,48.59
2023-05-16T04:26:14.381Z,47.60
2023-05-16T04:27:17.888Z,47.56
2023-05-16T04:28:21.378Z,47.48
2023-05-16T04:29:24.786Z,47.10
2023-05-16T04:30:28.185Z,47.80
2023-05-16T04:31:31.931Z,47.38
2023-05-16T04:32:37.688Z,46.86
2023-05-16T04:33:40.690Z,46.12
2023-05-16T04:34:43.769Z,46.54
2023-05-16T04:35:50.109Z,46.27
2023-05-16T04:36:53.597Z,45.23
2023-05-16T04:37:56.802Z,45.81
2023-05-16T04:39:00.407Z,45.81
2023-05-16T04:40:03.906Z,44.88
2023-05-16T04:41:07.204Z,45.38
2023-05-16T04:42:10.608Z,45.33
2023-05-16T04:43:13.948Z,44.60
2023-05-16T04:44:19.688Z,44.49
2023-05-16T04:45:23.121Z,45.10
2023-05-16T04:46:25.844Z,45.08
2023-05-16T04:47:28.458Z,44.89
2023-05-16T04:48:31.940Z,44.43
2023-05-16T04:49:34.189Z,44.92
2023-05-16T04:50:37.809Z,45.59
2023-05-16T04:51:41.181Z,45.62
2023-05-16T04:52:44.393Z,45.41
2023-05-16T04:53:47.902Z,45.48
2023-05-16T04:54:53.081Z,45.33
2023-05-16T04:55:55.454Z,45.74
2023-05-16T04:56:58.887Z,45.76
2023-05-16T04:58:05.110Z,44.66
2023-05-16T04:59:07.072Z,45.18
2023-05-16T05:00:12.722Z,44.83
2023-05-16T05:01:17.095Z,45.43
2023-05-16T05:02:19.699Z,45.52
2023-05-16T05:03:23.095Z,44.95
2023-05-16T05:04:26.515Z,44.85
2023-05-16T05:05:30.071Z,43.98
2023-05-16T05:06:33.212Z,44.52
2023-05-16T05:07:36.720Z,44.55
2023-05-16T05:08:39.787Z,44.32
2023-05-16T05:09:43.726Z,44.77
2023-05-16T05:10:49.094Z,44.19
2023-05-16T05:11:53.265Z,44.25
2023-05-16T05:12:56.328Z,43.89
2023-05-16T05:14:00.077Z,44.09
2023-05-16T05:15:04.310Z,43.75
2023-05-16T05:16:08.092Z,43.83
2023-05-16T05:17:13.337Z,43.93
2023-05-16T05:18:18.111Z,43.70
2023-05-16T05:19:23.388Z,43.63
2023-05-16T05:20:27.455Z,43.56
2023-05-16T05:21:30.941Z,43.49
2023-05-16T05:22:34.760Z,43.46
2023-05-16T05:23:38.201Z,42.97
2023-05-16T05:24:42.863Z,42.75
2023-05-16T05:25:48.002Z,42.70
2023-05-16T05:26:51.596Z,43.82
2023-05-16T05:27:55.045Z,42.88
2023-05-16T05:29:04.746Z,43.83
2023-05-16T05:30:07.098Z,43.14
2023-05-16T05:31:11.173Z,43.34
2023-05-16T05:32:15.380Z,42.93
2023-05-16T05:33:21.702Z,42.95
2023-05-16T05:34:24.375Z,43.35
2023-05-16T05:35:29.373Z,43.34
2023-05-16T05:36:36.330Z,44.19
2023-05-16T05:37:39.960Z,43.09
2023-05-16T05:38:43.520Z,43.90
2023-05-16T05:39:47.027Z,43.59
2023-05-16T05:40:50.207Z,43.84
2023-05-16T05:41:53.420Z,44.31
2023-05-16T05:42:56.802Z,43.07
2023-05-16T05:44:00.422Z,44.43
2023-05-16T05:45:04.487Z,44.03
2023-05-16T05:46:07.981Z,41.16
2023-05-16T05:47:11.454Z,40.32
2023-05-16T05:48:14.863Z,41.58
2023-05-16T05:49:17.123Z,39.84
2023-05-16T05:50:20.297Z,40.04
2023-05-16T05:51:23.800Z,39.44
2023-05-16T05:52:29.030Z,39.52
2023-05-16T05:53:32.371Z,39.49
2023-05-16T05:54:38.776Z,40.03
2023-05-16T05:55:43.886Z,38.92
2023-05-16T05:56:47.272Z,38.95
2023-05-16T05:57:50.681Z,40.45
2023-05-16T05:58:55.753Z,39.60
2023-05-16T06:00:00.301Z,39.49
2023-05-16T06:01:03.705Z,39.84
2023-05-16T06:02:07.448Z,39.28
2023-05-16T06:03:11.522Z,39.64
2023-05-16T06:04:15.184Z,40.31
2023-05-16T06:05:21.539Z,39.94
2023-05-16T06:06:24.576Z,40.17
2023-05-16T06:07:29.323Z,40.54
2023-05-16T06:08:34.705Z,40.24
2023-05-16T06:09:38.012Z,39.38
2023-05-16T06:10:40.466Z,40.25
2023-05-16T06:11:45.021Z,40.55
2023-05-16T06:12:48.420Z,40.58
2023-05-16T06:13:52.661Z,40.51
2023-05-16T06:14:56.896Z,40.27
2023-05-16T06:16:00.293Z,39.84
2023-05-16T06:17:04.078Z,39.32
2023-05-16T06:18:09.444Z,39.60
2023-05-16T06:19:16.375Z,39.45
2023-05-16T06:20:20.990Z,38.36
2023-05-16T06:21:24.807Z,38.38
2023-05-16T06:22:28.106Z,39.61
2023-05-16T06:23:32.019Z,38.66
2023-05-16T06:24:35.531Z,39.09
2023-05-16T06:25:39.010Z,39.58
2023-05-16T06:26:43.060Z,38.45
2023-05-16T06:27:48.694Z,38.71
2023-05-16T06:28:52.269Z,38.90
2023-05-16T06:29:56.833Z,39.16
2023-05-16T06:31:00.349Z,39.56
2023-05-16T06:32:04.093Z,41.50
2023-05-16T06:33:07.797Z,40.45
2023-05-16T06:34:15.202Z,41.59
2023-05-16T06:35:19.103Z,41.36
2023-05-16T06:36:22.464Z,43.01
2023-05-16T06:37:26.841Z,41.97
2023-05-16T06:38:30.295Z,43.48
2023-05-16T06:39:33.858Z,42.94
2023-05-16T06:40:36.579Z,44.29
2023-05-16T06:41:40.405Z,42.86
2023-05-16T06:42:48.597Z,43.82
2023-05-16T06:43:54.089Z,45.25
2023-05-16T06:44:57.819Z,45.07
2023-05-16T06:46:00.588Z,45.75
2023-05-16T06:47:07.193Z,45.20
2023-05-16T06:48:12.209Z,46.43
2023-05-16T06:49:16.132Z,46.66
2023-05-16T06:50:19.515Z,45.63
2023-05-16T06:51:22.079Z,47.02
2023-05-16T06:52:25.888Z,47.96
2023-05-16T06:53:30.227Z,45.30
2023-05-16T06:54:34.778Z,46.14
2023-05-16T06:55:38.396Z,46.54
2023-05-16T06:56:42.108Z,46.30
2023-05-16T06:57:48.858Z,49.17
2023-05-16T06:58:51.200Z,46.57
2023-05-16T06:59:55.521Z,44.94
2023-05-16T07:01:03.073Z,45.82
2023-05-16T07:02:06.834Z,46.53
2023-05-16T07:03:11.426Z,46.10
2023-05-16T07:04:18.147Z,46.26
2023-05-16T07:05:21.400Z,46.51
2023-05-16T07:06:24.930Z,47.40
2023-05-16T07:07:28.638Z,47.52
2023-05-16T07:08:32.888Z,48.25
2023-05-16T07:09:36.813Z,47.63
2023-05-16T07:10:40.216Z,45.60
2023-05-16T07:11:42.897Z,46.10
2023-05-16T07:12:47.827Z,46.92
2023-05-16T07:13:51.456Z,46.15
2023-05-16T07:14:54.762Z,46.19
2023-05-16T07:15:58.770Z,45.68
2023-05-16T07:17:02.762Z,45.44
2023-05-16T07:18:06.752Z,45.49
2023-05-16T07:19:09.743Z,45.74
2023-05-16T07:20:15.407Z,46.42
2023-05-16T07:21:18.853Z,46.67
2023-05-16T07:22:22.505Z,46.54
2023-05-16T07:23:25.240Z,46.50
2023-05-16T07:24:28.676Z,47.75
2023-05-16T07:25:32.705Z,47.19
2023-05-16T07:26:35.373Z,47.02
2023-05-16T07:27:42.962Z,47.24
2023-05-16T07:28:46.569Z,47.34
2023-05-16T07:29:50.181Z,47.92
2023-05-16T07:30:53.683Z,47.47
2023-05-16T07:31:56.596Z,47.64
2023-05-16T07:33:01.690Z,47.97
2023-05-16T07:34:05.473Z,47.83
2023-05-16T07:35:10.273Z,46.57
2023-05-16T07:36:17.344Z,47.84
2023-05-16T07:37:20.044Z,47.62
2023-05-16T07:38:23.439Z,47.00
2023-05-16T07:39:28.511Z,47.30
2023-05-16T07:40:32.226Z,46.93
2023-05-16T07:41:35.484Z,47.38
2023-05-16T07:42:38.912Z,47.80
2023-05-16T07:43:41.386Z,47.35
2023-05-16T07:44:47.895Z,47.06
2023-05-16T07:45:50.909Z,47.38
2023-05-16T07:46:55.762Z,47.15
2023-05-16T07:48:01.686Z,48.00
2023-05-16T07:49:05.335Z,47.71
2023-05-16T07:50:10.826Z,47.24
2023-05-16T07:51:14.679Z,46.96
2023-05-16T07:52:18.615Z,47.06
2023-05-16T07:53:25.344Z,46.45
2023-05-16T07:54:28.582Z,46.07
2023-05-16T07:55:32.153Z,46.81
2023-05-16T07:56:35.764Z,45.87
2023-05-16T07:57:39.299Z,46.54
2023-05-16T07:58:43.093Z,47.01
2023-05-16T07:59:47.781Z,46.85
2023-05-16T08:00:52.749Z,46.49
2023-05-16T08:02:00.177Z,46.54
2023-05-16T08:03:08.070Z,45.90
2023-05-16T08:04:11.786Z,46.32
2023-05-16T08:05:15.244Z,45.73
2023-05-16T08:06:18.904Z,45.43
2023-05-16T08:07:23.024Z,45.71
2023-05-16T08:08:25.681Z,46.21
2023-05-16T08:09:29.092Z,45.31
2023-05-16T08:10:32.834Z,45.58
2023-05-16T08:11:37.153Z,45.64
2023-05-16T08:12:41.815Z,45.91
2023-05-16T08:13:46.978Z,45.74
2023-05-16T08:14:51.792Z,45.86
2023-05-16T08:15:56.750Z,46.24
2023-05-16T08:17:01.364Z,46.60
2023-05-16T08:18:06.934Z,46.07
2023-05-16T08:19:12.886Z,46.09
2023-05-16T08:20:16.382Z,46.44
2023-05-16T08:21:19.046Z,47.33
2023-05-16T08:22:22.832Z,46.86
2023-05-16T08:23:26.683Z,46.29
2023-05-16T08:24:30.071Z,46.61
2023-05-16T08:25:33.472Z,46.54
2023-05-16T08:26:37.934Z,46.81
2023-05-16T08:27:44.590Z,46.09
2023-05-16T08:28:48.373Z,47.01
2023-05-16T08:29:52.104Z,47.24
2023-05-16T08:30:55.367Z,47.30
2023-05-16T08:31:58.957Z,46.74
2023-05-16T08:33:07.788Z,46.62
2023-05-16T08:34:12.590Z,46.29
2023-05-16T08:35:17.825Z,47.14
2023-05-16T08:36:21.796Z,47.27
2023-05-16T08:37:25.612Z,46.92
2023-05-16T08:38:29.840Z,47.36
2023-05-16T08:39:32.302Z,47.05
2023-05-16T08:40:35.912Z,47.29
2023-05-16T08:41:40.153Z,48.04
2023-05-16T08:42:45.316Z,47.50
2023-05-16T08:43:52.417Z,47.95
2023-05-16T08:44:58.654Z,47.47
2023-05-16T08:46:02.008Z,48.55
2023-05-16T08:47:10.163Z,49.16
2023-05-16T08:48:16.091Z,49.72
2023-05-16T08:49:20.483Z,51.06
2023-05-16T08:50:26.094Z,52.25
2023-05-16T08:51:31.360Z,51.95
2023-05-16T08:52:35.811Z,51.31
2023-05-16T08:53:40.977Z,51.28
2023-05-16T08:54:48.545Z,52.67
2023-05-16T08:55:53.221Z,53.53
2023-05-16T08:56:57.008Z,54.97
2023-05-16T08:58:01.241Z,55.86
2023-05-16T08:59:04.964Z,56.53
2023-05-16T09:00:11.572Z,55.45
2023-05-16T09:01:14.816Z,55.72
2023-05-16T09:02:18.182Z,55.91
2023-05-16T09:03:22.950Z,58.49
2023-05-16T09:04:28.282Z,59.94
2023-05-16T09:05:35.487Z,59.30
2023-05-16T09:06:39.428Z,58.83
2023-05-16T09:07:46.099Z,59.96
2023-05-16T09:08:50.397Z,60.19
2023-05-16T09:09:53.846Z,60.95
2023-05-16T09:10:57.204Z,59.94
2023-05-16T09:12:00.918Z,62.70
2023-05-16T09:13:06.293Z,59.02
2023-05-16T09:14:09.938Z,63.07
2023-05-16T09:15:13.747Z,63.95
2023-05-16T09:16:20.019Z,58.71
2023-05-16T09:17:36.018Z,59.47
2023-05-16T09:18:28.989Z,61.54
2023-05-16T09:19:40.128Z,60.53
2023-05-16T09:20:49.930Z,59.44
2023-05-16T09:21:53.450Z,60.43
2023-05-16T09:22:59.074Z,63.10
2023-05-16T09:24:06.723Z,60.19
2023-05-16T09:25:18.350Z,57.90
2023-05-16T09:26:15.407Z,56.04
2023-05-16T09:27:18.394Z,57.00
2023-05-16T09:28:23.431Z,54.32
2023-05-16T09:29:28.013Z,53.28
2023-05-16T09:30:34.938Z,51.14
2023-05-16T09:31:38.110Z,53.09
2023-05-16T09:32:44.775Z,51.93
2023-05-16T09:33:48.841Z,51.82
2023-05-16T09:34:53.882Z,53.19
2023-05-16T09:36:02.401Z,50.98
2023-05-16T09:37:06.229Z,50.53
2023-05-16T09:38:10.464Z,51.17
2023-05-16T09:39:15.761Z,47.94
2023-05-16T09:40:21.332Z,50.26
2023-05-16T09:41:24.939Z,46.75
2023-05-16T09:42:27.627Z,47.04
2023-05-16T09:43:36.393Z,46.25
2023-05-16T09:44:39.446Z,49.22
2023-05-16T09:45:44.920Z,46.58
2023-05-16T09:46:47.329Z,46.83
2023-05-16T09:47:50.692Z,45.11
2023-05-16T09:48:54.495Z,46.07
2023-05-16T09:49:58.005Z,45.53
2023-05-16T09:51:07.053Z,48.12
2023-05-16T09:52:15.519Z,45.79
2023-05-16T09:53:20.476Z,46.62
2023-05-16T09:54:32.814Z,43.95
2023-05-16T09:55:36.319Z,46.66
2023-05-16T09:56:47.964Z,44.32
2023-05-16T09:57:52.829Z,45.47
2023-05-16T09:58:59.532Z,44.46
2023-05-16T10:00:08.259Z,45.45
2023-05-16T10:01:12.533Z,46.34
2023-05-16T10:02:18.400Z,44.47
2023-05-16T10:03:23.611Z,46.00
2023-05-16T10:04:27.671Z,46.26
2023-05-16T10:05:31.558Z,46.13
2023-05-16T10:06:36.570Z,46.25
2023-05-16T10:07:39.946Z,44.38
2023-05-16T10:08:47.726Z,45.89
2023-05-16T10:09:52.154Z,46.04
2023-05-16T10:10:58.478Z,45.96
2023-05-16T10:12:07.003Z,46.71
2023-05-16T10:13:13.365Z,47.57
2023-05-16T10:14:18.596Z,47.24
2023-05-16T10:15:25.482Z,47.68
2023-05-16T10:16:28.409Z,47.09
2023-05-16T10:17:36.158Z,47.64
2023-05-16T10:18:40.570Z,47.54
2023-05-16T10:19:43.965Z,46.73
2023-05-16T10:20:53.053Z,47.31
2023-05-16T10:22:00.384Z,46.57
2023-05-16T10:23:04.980Z,46.40
2023-05-16T10:24:09.463Z,46.20
2023-05-16T10:25:24.163Z,44.77
2023-05-16T10:26:30.969Z,45.81
2023-05-16T10:27:36.392Z,44.96
2023-05-16T10:28:41.744Z,45.11
2023-05-16T10:30:55.405Z,45.12
2023-05-16T10:31:59.852Z,44.09
2023-05-16T10:33:05.117Z,43.84
2023-05-16T10:34:08.487Z,44.35
2023-05-16T10:35:11.788Z,43.90
2023-05-16T10:36:16.143Z,45.45
2023-05-16T10:37:21.044Z,44.77
2023-05-16T10:38:25.513Z,45.87
2023-05-16T10:39:31.107Z,44.63
2023-05-16T10:40:37.603Z,45.32
2023-05-16T10:41:41.065Z,45.86
2023-05-16T10:42:45.830Z,45.75
2023-05-16T10:43:59.680Z,45.71
2023-05-16T10:45:18.480Z,45.78
2023-05-16T10:46:23.033Z,45.52
2023-05-16T10:47:27.329Z,46.86
2023-05-16T10:48:31.230Z,46.11
2023-05-16T10:49:34.736Z,45.74
2023-05-16T10:50:43.250Z,46.24
2023-05-16T10:51:46.166Z,45.86
2023-05-16T10:52:50.631Z,45.35
2023-05-16T10:53:57.499Z,46.21
2023-05-16T10:55:02.694Z,46.68
2023-05-16T10:56:09.626Z,45.98
2023-05-16T10:57:15.992Z,46.63
2023-05-16T10:58:20.148Z,46.64
2023-05-16T10:59:26.649Z,46.94
2023-05-16T11:00:32.339Z,47.78
2023-05-16T11:01:36.289Z,47.33
2023-05-16T11:02:46.376Z,46.91
2023-05-16T11:04:01.024Z,46.97
2023-05-16T11:05:06.636Z,47.18
2023-05-16T11:06:13.492Z,46.65
2023-05-16T11:07:18.764Z,47.05
2023-05-16T11:08:22.374Z,46.65
2023-05-16T11:09:29.264Z,46.55
2023-05-16T11:10:34.302Z,47.05
2023-05-16T11:11:41.923Z,47.04
2023-05-16T11:12:54.462Z,46.35
2023-05-16T11:13:57.334Z,46.96
2023-05-16T11:15:03.137Z,46.82
2023-05-16T11:16:28.818Z,46.24
2023-05-16T11:17:34.338Z,46.67
2023-05-16T11:18:39.681Z,46.10
2023-05-16T11:19:47.264Z,47.08
2023-05-16T11:20:55.675Z,47.82
2023-05-16T11:22:18.279Z,46.16
2023-05-16T11:23:24.441Z,46.43
2023-05-16T11:24:31.667Z,46.49
2023-05-16T11:25:41.848Z,46.46
2023-05-16T11:26:48.396Z,45.90
2023-05-16T11:27:52.202Z,45.92
2023-05-16T11:28:56.647Z,46.68
2023-05-16T11:30:09.552Z,46.42
2023-05-16T11:31:14.126Z,47.26
2023-05-16T11:32:22.732Z,46.98
2023-05-16T11:33:29.279Z,47.59
2023-05-16T11:34:34.425Z,47.44
2023-05-16T11:35:37.528Z,47.63
2023-05-16T11:36:42.583Z,47.01
2023-05-16T11:37:49.745Z,47.46
2023-05-16T11:38:52.421Z,47.16
2023-05-16T11:40:06.019Z,47.41
2023-05-16T11:41:11.707Z,46.50
2023-05-16T11:42:15.256Z,47.20
2023-05-16T11:43:19.080Z,47.57
2023-05-16T11:44:22.364Z,47.61
2023-05-16T11:45:25.768Z,47.80
2023-05-16T11:46:29.704Z,48.21
2023-05-16T11:47:32.181Z,47.74
2023-05-16T11:48:37.785Z,48.01
2023-05-16T11:49:42.378Z,47.70
2023-05-16T11:50:48.134Z,47.54
2023-05-16T11:51:54.528Z,47.01
2023-05-16T11:53:00.115Z,47.57
2023-05-16T11:54:05.824Z,47.52
2023-05-16T11:55:12.069Z,47.38
2023-05-16T11:56:19.339Z,47.54
2023-05-16T11:57:22.719Z,46.98
2023-05-16T11:58:28.621Z,46.57
2023-05-16T11:59:32.238Z,46.96
2023-05-16T12:00:35.053Z,46.44
2023-05-16T12:01:39.559Z,46.79
2023-05-16T12:02:42.840Z,46.17
2023-05-16T12:03:48.661Z,45.62
2023-05-16T12:04:53.329Z,46.21
2023-05-16T12:05:59.104Z,45.79
2023-05-16T12:07:01.770Z,46.33
2023-05-16T12:08:06.176Z,45.69
2023-05-16T12:09:12.652Z,44.85
2023-05-16T12:10:18.468Z,45.44
2023-05-16T12:11:24.367Z,46.12
2023-05-16T12:12:29.646Z,45.72
2023-05-16T12:13:33.248Z,45.73
2023-05-16T12:14:37.392Z,46.09
2023-05-16T12:15:44.964Z,45.98
2023-05-16T12:16:52.332Z,44.91
2023-05-16T12:17:57.964Z,45.40
2023-05-16T12:19:02.730Z,44.69
2023-05-16T12:20:07.449Z,45.23
2023-05-16T12:21:11.355Z,44.64
2023-05-16T12:22:18.933Z,44.22
2023-05-16T12:23:22.438Z,44.46
2023-05-16T12:24:28.896Z,44.27
2023-05-16T12:25:35.927Z,44.45
2023-05-16T12:26:41.135Z,43.54
2023-05-16T12:27:47.650Z,43.81
2023-05-16T12:28:53.964Z,43.78
2023-05-16T12:29:58.959Z,44.25
2023-05-16T12:31:03.920Z,43.82
2023-05-16T12:32:10.370Z,43.90
2023-05-16T12:33:15.129Z,43.86
2023-05-16T12:34:19.833Z,44.29
2023-05-16T12:35:26.105Z,43.60
2023-05-16T12:36:31.616Z,44.13
2023-05-16T12:37:34.760Z,44.21
2023-05-16T12:38:38.203Z,43.93
2023-05-16T12:39:41.603Z,43.89
2023-05-16T12:40:44.179Z,44.07
2023-05-16T12:41:48.014Z,43.97
2023-05-16T12:42:53.118Z,44.56
2023-05-16T12:43:59.860Z,44.41
2023-05-16T12:45:03.792Z,43.90
2023-05-16T12:46:09.402Z,43.26
2023-05-16T12:47:13.908Z,43.95
2023-05-16T12:48:18.308Z,43.46
2023-05-16T12:49:23.917Z,44.13
2023-05-16T12:50:29.039Z,42.97
2023-05-16T12:51:34.705Z,42.89
2023-05-16T12:52:45.603Z,43.14
2023-05-16T12:54:05.693Z,43.44
2023-05-16T12:54:54.493Z,43.86
2023-05-16T12:55:59.625Z,43.41
2023-05-16T12:57:03.640Z,43.68
2023-05-16T12:58:07.953Z,43.75
2023-05-16T12:59:15.002Z,43.38
2023-05-16T13:00:25.599Z,43.55
2023-05-16T13:01:29.519Z,43.60
2023-05-16T13:02:35.145Z,43.53
2023-05-16T13:03:45.868Z,43.44
2023-05-16T13:04:49.640Z,43.36
2023-05-16T13:05:52.568Z,43.79
2023-05-16T13:06:59.672Z,44.33
2023-05-16T13:08:02.292Z,43.43
2023-05-16T13:09:06.528Z,43.96
2023-05-16T13:10:13.757Z,44.07
2023-05-16T13:11:16.678Z,43.68
2023-05-16T13:12:21.051Z,43.88
2023-05-16T13:13:35.856Z,43.93
2023-05-16T13:14:33.458Z,43.28
2023-05-16T13:15:37.291Z,42.12
2023-05-16T13:16:41.171Z,42.63
2023-05-16T13:17:45.864Z,42.12
2023-05-16T13:18:53.357Z,42.14
2023-05-16T13:19:57.067Z,42.17
2023-05-16T13:20:59.489Z,42.75
2023-05-16T13:22:03.220Z,41.82
2023-05-16T13:23:07.035Z,42.52
2023-05-16T13:24:10.530Z,42.96
2023-05-16T13:25:13.992Z,42.75
2023-05-16T13:26:18.602Z,43.62
2023-05-16T13:27:22.415Z,43.37
2023-05-16T13:28:26.071Z,44.27
2023-05-16T13:29:30.597Z,42.74
2023-05-16T13:30:41.946Z,42.78
2023-05-16T13:31:46.780Z,42.94
2023-05-16T13:32:50.550Z,42.25
2023-05-16T13:33:57.224Z,43.41
2023-05-16T13:35:02.404Z,42.66
2023-05-16T13:36:06.346Z,42.98
2023-05-16T13:37:10.692Z,42.87
2023-05-16T13:38:15.765Z,42.75
2023-05-16T13:39:19.242Z,42.03
2023-05-16T13:40:22.129Z,41.86
2023-05-16T13:41:24.793Z,42.22
2023-05-16T13:42:28.295Z,42.46
2023-05-16T13:43:32.329Z,41.95
2023-05-16T13:44:40.937Z,42.38
2023-05-16T13:45:45.299Z,42.00
2023-05-16T13:46:50.050Z,42.13
2023-05-16T13:47:53.478Z,42.29
2023-05-16T13:48:56.765Z,42.22
2023-05-16T13:50:08.501Z,42.39
2023-05-16T13:51:12.318Z,41.75
2023-05-16T13:52:15.508Z,41.99
2023-05-16T13:53:17.753Z,42.61
2023-05-16T13:54:22.838Z,42.10
2023-05-16T13:55:26.506Z,42.26
2023-05-16T13:56:30.218Z,42.72
2023-05-16T13:57:33.356Z,43.28